createdAt,value
2019-05-26T00:00:09.878Z,11.64
2019-05-26T00:02:38.484Z,11.52
2019-05-26T00:05:08.858Z,11.39
2019-05-26T00:07:37.903Z,11.26
2019-05-26T00:10:09.899Z,10.93
2019-05-26T00:12:38.661Z,10.65
2019-05-26T00:15:08.253Z,10.59
2019-05-26T00:17:36.666Z,10.64
2019-05-26T00:20:08.444Z,10.45
2019-05-26T00:22:37.071Z,10.40
2019-05-26T00:25:07.492Z,10.50
2019-05-26T00:27:35.950Z,10.65
2019-05-26T00:30:07.462Z,10.81
2019-05-26T00:32:35.893Z,10.89
2019-05-26T00:35:08.933Z,10.82
2019-05-26T00:37:49.027Z,10.69
2019-05-26T00:40:08.865Z,10.49
2019-05-26T00:42:38.181Z,10.30
2019-05-26T00:45:08.175Z,10.62
2019-05-26T00:47:36.650Z,10.73
2019-05-26T00:50:07.936Z,10.77
2019-05-26T00:52:36.546Z,10.66
2019-05-26T00:55:06.887Z,10.65
2019-05-26T00:57:35.332Z,10.70
2019-05-26T01:00:09.019Z,10.78
2019-05-26T01:02:38.232Z,10.87
2019-05-26T01:05:08.239Z,10.73
2019-05-26T01:07:37.605Z,10.71
2019-05-26T01:10:11.164Z,10.67
2019-05-26T01:12:39.632Z,10.63
2019-05-26T01:15:09.502Z,10.66
2019-05-26T01:17:38.388Z,10.72
2019-05-26T01:20:07.161Z,10.79
2019-05-26T01:22:35.594Z,10.78
2019-05-26T01:25:05.931Z,10.77
2019-05-26T01:27:34.333Z,10.88
2019-05-26T01:30:02.795Z,10.94
2019-05-26T01:32:31.224Z,10.98
2019-05-26T01:34:59.648Z,10.99
2019-05-26T01:37:28.224Z,10.99
2019-05-26T01:39:56.652Z,10.97
2019-05-26T01:42:25.073Z,10.77
2019-05-26T01:44:53.524Z,10.36
2019-05-26T01:47:21.947Z,10.25
2019-05-26T01:49:50.414Z,10.22
2019-05-26T01:52:18.824Z,10.42
2019-05-26T01:54:47.363Z,10.59
2019-05-26T01:57:15.772Z,10.66
2019-05-26T01:59:44.210Z,10.72
2019-05-26T02:02:12.635Z,10.68
2019-05-26T02:04:41.074Z,10.52
2019-05-26T02:07:09.486Z,10.66
2019-05-26T02:09:37.910Z,10.63
2019-05-26T02:12:06.405Z,10.67
2019-05-26T02:14:34.859Z,10.52
2019-05-26T02:17:03.259Z,10.43
2019-05-26T02:19:31.686Z,10.14
2019-05-26T02:22:00.099Z,10.26
2019-05-26T02:24:28.537Z,10.21
2019-05-26T02:26:56.953Z,10.24
2019-05-26T02:29:25.394Z,10.21
2019-05-26T02:31:53.830Z,10.33
2019-05-26T02:34:22.223Z,10.35
2019-05-26T02:36:50.674Z,10.43
2019-05-26T02:39:19.167Z,10.18
2019-05-26T02:41:47.584Z,10.38
2019-05-26T02:44:16.072Z,10.17
2019-05-26T02:46:44.594Z,9.96
2019-05-26T02:49:13.039Z,10.05
2019-05-26T02:51:41.432Z,10.20
2019-05-26T02:54:09.849Z,10.23
2019-05-26T02:56:39.893Z,10.23
2019-05-26T02:59:09.373Z,10.17
2019-05-26T03:02:03.570Z,10.27
2019-05-26T03:04:29.586Z,10.34
2019-05-26T03:07:00.604Z,10.11
2019-05-26T03:09:30.643Z,9.95
2019-05-26T03:12:01.402Z,10.10
2019-05-26T03:14:32.841Z,10.18
2019-05-26T03:17:02.613Z,10.24
2019-05-26T03:19:34.950Z,10.24
2019-05-26T03:22:04.619Z,10.25
2019-05-26T03:24:33.875Z,10.43
2019-05-26T03:27:02.270Z,10.50
2019-05-26T03:29:30.717Z,10.34
2019-05-26T03:31:59.257Z,10.34
2019-05-26T03:34:27.697Z,10.27
2019-05-26T03:36:56.100Z,10.22
2019-05-26T03:39:42.590Z,10.15
2019-05-26T03:41:54.659Z,10.08
2019-05-26T03:44:23.094Z,10.07
2019-05-26T03:46:51.522Z,10.08
2019-05-26T03:49:19.939Z,10.06
2019-05-26T03:51:48.371Z,10.03
2019-05-26T03:54:16.777Z,9.88
2019-05-26T03:56:45.229Z,9.84
2019-05-26T03:59:13.686Z,9.80
2019-05-26T04:01:42.107Z,9.88
2019-05-26T04:04:10.502Z,9.93
2019-05-26T04:06:39.996Z,10.01
2019-05-26T04:09:09.093Z,10.11
2019-05-26T04:11:37.512Z,10.25
2019-05-26T04:14:05.921Z,10.08
2019-05-26T04:16:34.357Z,10.10
2019-05-26T04:19:02.769Z,10.08
2019-05-26T04:21:31.189Z,10.28
2019-05-26T04:23:59.648Z,10.44
2019-05-26T04:26:28.081Z,10.43
2019-05-26T04:28:56.502Z,10.37
2019-05-26T04:31:25.160Z,10.23
2019-05-26T04:33:53.575Z,10.21
2019-05-26T04:36:22.116Z,10.14
2019-05-26T04:38:50.506Z,10.14
2019-05-26T04:41:18.909Z,10.20
2019-05-26T04:43:47.352Z,10.27
2019-05-26T04:46:15.793Z,10.44
2019-05-26T04:48:44.210Z,11.12
2019-05-26T04:51:12.634Z,11.12
2019-05-26T04:53:41.069Z,11.25
2019-05-26T04:56:10.436Z,11.14
2019-05-26T04:58:38.831Z,11.21
2019-05-26T05:01:07.237Z,11.08
2019-05-26T05:03:35.707Z,11.00
2019-05-26T05:06:04.201Z,11.20
2019-05-26T05:08:32.635Z,11.18
2019-05-26T05:11:01.110Z,11.29
2019-05-26T05:13:29.516Z,11.50
2019-05-26T05:15:57.959Z,11.50
2019-05-26T05:18:26.414Z,11.51
2019-05-26T05:20:54.860Z,11.66
2019-05-26T05:23:23.291Z,11.59
2019-05-26T05:25:51.724Z,11.58
2019-05-26T05:28:20.145Z,11.76
2019-05-26T05:30:48.606Z,11.66
2019-05-26T05:33:17.002Z,12.03
2019-05-26T05:35:45.453Z,12.28
2019-05-26T05:38:13.877Z,12.75
2019-05-26T05:40:56.379Z,12.94
2019-05-26T05:43:12.444Z,12.94
2019-05-26T05:45:41.010Z,13.04
2019-05-26T05:48:09.438Z,13.18
2019-05-26T05:50:39.290Z,13.18
2019-05-26T05:53:08.049Z,13.14
2019-05-26T05:55:36.491Z,12.86
2019-05-26T05:58:04.981Z,13.41
2019-05-26T06:00:33.401Z,13.41
2019-05-26T06:03:01.858Z,13.14
2019-05-26T06:05:30.282Z,13.43
2019-05-26T06:07:58.730Z,13.45
2019-05-26T06:10:27.185Z,13.84
2019-05-26T06:12:55.585Z,13.79
2019-05-26T06:15:24.016Z,13.38
2019-05-26T06:17:52.559Z,14.08
2019-05-26T06:20:20.981Z,13.75
2019-05-26T06:22:49.418Z,14.17
2019-05-26T06:25:18.110Z,13.95
2019-05-26T06:27:46.771Z,14.26
2019-05-26T06:30:15.431Z,14.65
2019-05-26T06:32:43.845Z,14.46
2019-05-26T06:35:12.608Z,14.84
2019-05-26T06:37:41.534Z,14.80
2019-05-26T06:40:10.197Z,15.31
2019-05-26T06:42:38.732Z,14.87
2019-05-26T06:45:07.811Z,15.42
2019-05-26T06:47:36.269Z,15.02
2019-05-26T06:50:05.765Z,15.21
2019-05-26T06:52:34.245Z,15.88
2019-05-26T06:55:02.756Z,16.07
2019-05-26T06:57:31.145Z,15.61
2019-05-26T06:59:59.559Z,15.84
2019-05-26T07:02:27.956Z,16.71
2019-05-26T07:04:56.375Z,16.19
2019-05-26T07:07:24.808Z,16.03
2019-05-26T07:09:53.504Z,16.86
2019-05-26T07:12:22.038Z,16.07
2019-05-26T07:14:50.489Z,16.12
2019-05-26T07:17:20.639Z,16.00
2019-05-26T07:19:49.314Z,16.90
2019-05-26T07:22:17.769Z,17.12
2019-05-26T07:24:46.177Z,17.12
2019-05-26T07:27:14.616Z,17.04
2019-05-26T07:29:43.036Z,17.42
2019-05-26T07:32:12.119Z,17.82
2019-05-26T07:34:40.570Z,18.00
2019-05-26T07:37:09.071Z,19.18
2019-05-26T07:39:37.537Z,18.85
2019-05-26T07:42:10.365Z,18.93
2019-05-26T07:44:36.096Z,19.28
2019-05-26T07:47:04.591Z,19.55
2019-05-26T07:49:33.024Z,19.81
2019-05-26T07:52:01.443Z,19.97
2019-05-26T07:54:29.858Z,19.94
2019-05-26T07:56:58.265Z,20.94
2019-05-26T07:59:26.724Z,21.49
2019-05-26T08:01:55.134Z,20.49
2019-05-26T08:04:23.584Z,20.97
2019-05-26T08:06:52.015Z,21.62
2019-05-26T08:09:20.668Z,20.53
2019-05-26T08:11:49.058Z,21.06
2019-05-26T08:14:17.493Z,20.96
2019-05-26T08:16:45.916Z,21.33
2019-05-26T08:19:14.356Z,21.39
2019-05-26T08:21:42.788Z,21.70
2019-05-26T08:24:11.185Z,21.83
2019-05-26T08:26:39.582Z,21.95
2019-05-26T08:29:08.003Z,22.42
2019-05-26T08:31:36.498Z,21.37
2019-05-26T08:34:04.970Z,21.92
2019-05-26T08:36:33.381Z,21.45
2019-05-26T08:39:01.816Z,21.75
2019-05-26T08:41:30.318Z,20.93
2019-05-26T08:43:58.730Z,20.70
2019-05-26T08:46:27.143Z,20.67
2019-05-26T08:48:55.565Z,21.20
2019-05-26T08:51:23.974Z,21.68
2019-05-26T08:53:52.400Z,21.67
2019-05-26T08:56:20.824Z,21.67
2019-05-26T08:58:49.235Z,21.24
2019-05-26T09:01:17.699Z,21.41
2019-05-26T09:03:46.132Z,21.78
2019-05-26T09:06:14.558Z,21.98
2019-05-26T09:08:43.002Z,22.05
2019-05-26T09:11:11.403Z,22.42
2019-05-26T09:13:39.786Z,21.83
2019-05-26T09:16:08.201Z,21.94
2019-05-26T09:18:36.601Z,22.98
2019-05-26T09:21:05.004Z,23.32
2019-05-26T09:23:33.433Z,23.56
2019-05-26T09:26:01.861Z,23.76
2019-05-26T09:28:30.283Z,23.77
2019-05-26T09:30:58.718Z,23.69
2019-05-26T09:33:27.123Z,24.08
2019-05-26T09:35:55.615Z,23.61
2019-05-26T09:38:23.968Z,23.00
2019-05-26T09:40:52.366Z,23.77
2019-05-26T09:43:20.781Z,24.04
2019-05-26T09:45:49.186Z,23.02
2019-05-26T09:48:17.598Z,23.53
2019-05-26T09:50:46.013Z,23.33
2019-05-26T09:53:14.467Z,24.20
2019-05-26T09:55:43.218Z,24.44
2019-05-26T09:58:11.616Z,24.28
2019-05-26T10:00:40.112Z,24.35
2019-05-26T10:03:08.530Z,24.20
2019-05-26T10:05:36.943Z,24.68
2019-05-26T10:08:05.364Z,23.82
2019-05-26T10:10:33.767Z,24.18
2019-05-26T10:13:02.173Z,23.97
2019-05-26T10:15:30.567Z,23.90
2019-05-26T10:17:58.975Z,24.25
2019-05-26T10:20:27.379Z,24.61
2019-05-26T10:22:55.771Z,24.33
2019-05-26T10:25:24.213Z,23.98
2019-05-26T10:27:52.641Z,23.45
2019-05-26T10:30:21.215Z,24.53
2019-05-26T10:32:49.642Z,24.63
2019-05-26T10:35:18.105Z,24.70
2019-05-26T10:37:46.536Z,24.31
2019-05-26T10:40:15.304Z,24.64
2019-05-26T10:42:43.743Z,24.32
2019-05-26T10:45:12.576Z,24.35
2019-05-26T10:47:40.998Z,24.23
2019-05-26T10:50:10.439Z,23.79
2019-05-26T10:52:38.905Z,23.26
2019-05-26T10:55:07.887Z,22.89
2019-05-26T10:57:36.331Z,22.30
2019-05-26T11:00:08.121Z,21.96
2019-05-26T11:02:36.521Z,21.91
2019-05-26T11:05:06.476Z,22.38
2019-05-26T11:07:34.880Z,22.52
2019-05-26T11:10:04.274Z,22.44
2019-05-26T11:12:32.672Z,22.74
2019-05-26T11:15:01.085Z,22.72
2019-05-26T11:17:29.492Z,22.66
2019-05-26T11:19:57.887Z,23.03
2019-05-26T11:22:26.295Z,23.29
2019-05-26T11:24:54.790Z,23.18
2019-05-26T11:27:23.210Z,22.83
2019-05-26T11:29:51.606Z,22.83
2019-05-26T11:32:20.051Z,22.77
2019-05-26T11:35:00.595Z,22.62
2019-05-26T11:37:18.601Z,22.25
2019-05-26T11:39:47.081Z,22.74
2019-05-26T11:42:15.628Z,22.77
2019-05-26T11:44:44.207Z,22.62
2019-05-26T11:47:12.640Z,22.70
2019-05-26T11:49:41.069Z,22.56
2019-05-26T11:52:09.482Z,22.55
2019-05-26T11:54:37.891Z,22.74
2019-05-26T11:57:06.449Z,22.81
2019-05-26T11:59:34.874Z,22.92
2019-05-26T12:02:03.360Z,23.00
2019-05-26T12:04:31.808Z,23.16
2019-05-26T12:07:00.214Z,22.96
2019-05-26T12:09:28.652Z,22.61
2019-05-26T12:11:57.086Z,22.55
2019-05-26T12:14:34.329Z,22.44
2019-05-26T12:16:55.667Z,22.38
2019-05-26T12:19:24.083Z,22.59
2019-05-26T12:21:52.513Z,22.54
2019-05-26T12:24:20.916Z,22.79
2019-05-26T12:26:49.335Z,22.73
2019-05-26T12:29:17.734Z,22.37
2019-05-26T12:31:46.258Z,22.47
2019-05-26T12:34:14.656Z,22.54
2019-05-26T12:36:43.100Z,22.60
2019-05-26T12:39:11.605Z,22.95
2019-05-26T12:41:40.091Z,23.04
2019-05-26T12:44:10.967Z,22.73
2019-05-26T12:46:38.674Z,22.90
2019-05-26T12:49:07.094Z,23.24
2019-05-26T12:51:35.550Z,23.76
2019-05-26T12:54:04.212Z,23.72
2019-05-26T12:56:32.626Z,23.85
2019-05-26T12:59:01.073Z,23.66
2019-05-26T13:01:29.554Z,23.65
2019-05-26T13:03:59.394Z,23.51
2019-05-26T13:06:27.851Z,23.91
2019-05-26T13:08:56.280Z,24.01
2019-05-26T13:11:24.693Z,23.69
2019-05-26T13:13:53.092Z,23.48
2019-05-26T13:16:21.611Z,23.57
2019-05-26T13:18:50.030Z,23.64
2019-05-26T13:21:18.439Z,23.79
2019-05-26T13:23:46.867Z,23.77
2019-05-26T13:26:15.270Z,23.93
2019-05-26T13:28:43.693Z,23.59
2019-05-26T13:31:12.134Z,23.64
2019-05-26T13:33:40.531Z,23.48
2019-05-26T13:36:08.966Z,23.29
2019-05-26T13:38:37.357Z,23.64
2019-05-26T13:41:05.788Z,23.68
2019-05-26T13:43:34.250Z,23.78
2019-05-26T13:46:02.662Z,24.17
2019-05-26T13:48:31.070Z,24.26
2019-05-26T13:50:59.501Z,24.13
2019-05-26T13:53:27.984Z,23.67
2019-05-26T13:55:56.389Z,23.53
2019-05-26T13:58:24.812Z,23.73
2019-05-26T14:00:53.302Z,23.78
2019-05-26T14:03:24.215Z,23.47
2019-05-26T14:05:51.898Z,23.21
2019-05-26T14:08:20.857Z,23.14
2019-05-26T14:10:49.620Z,23.35
2019-05-26T14:13:18.390Z,23.56
2019-05-26T14:15:48.721Z,23.52
2019-05-26T14:18:18.326Z,23.76
2019-05-26T14:20:47.259Z,23.75
2019-05-26T14:23:15.679Z,23.85
2019-05-26T14:25:44.124Z,23.91
2019-05-26T14:28:12.582Z,24.07
2019-05-26T14:30:40.980Z,23.24
2019-05-26T14:33:09.393Z,23.45
2019-05-26T14:35:37.910Z,23.40
2019-05-26T14:38:06.388Z,23.80
2019-05-26T14:40:34.821Z,23.88
2019-05-26T14:43:03.243Z,23.70
2019-05-26T14:45:31.660Z,23.55
2019-05-26T14:48:00.149Z,23.46
2019-05-26T14:50:28.580Z,22.94
2019-05-26T14:52:56.994Z,22.74
2019-05-26T14:55:25.421Z,22.88
2019-05-26T14:57:53.826Z,23.19
2019-05-26T15:00:24.315Z,22.84
2019-05-26T15:02:52.704Z,23.05
2019-05-26T15:05:21.734Z,22.80
2019-05-26T15:07:50.156Z,22.70
2019-05-26T15:10:18.656Z,22.58
2019-05-26T15:12:47.062Z,22.59
2019-05-26T15:15:16.600Z,22.39
2019-05-26T15:17:45.001Z,22.46
2019-05-26T15:20:14.940Z,22.13
2019-05-26T15:22:43.379Z,21.70
2019-05-26T15:25:12.072Z,21.58
2019-05-26T15:27:40.464Z,21.67
2019-05-26T15:30:11.323Z,21.55
2019-05-26T15:32:39.773Z,21.44
2019-05-26T15:35:08.994Z,21.50
2019-05-26T15:37:37.478Z,21.55
2019-05-26T15:40:07.702Z,21.37
2019-05-26T15:42:36.410Z,21.29
2019-05-26T15:45:06.550Z,21.12
2019-05-26T15:47:35.039Z,21.17
2019-05-26T15:50:05.110Z,20.98
2019-05-26T15:52:33.576Z,21.16
2019-05-26T15:55:02.001Z,21.11
2019-05-26T15:57:31.457Z,21.12
2019-05-26T16:00:00.017Z,20.95
2019-05-26T16:02:28.466Z,21.10
2019-05-26T16:04:58.914Z,20.97
2019-05-26T16:07:27.092Z,20.95
2019-05-26T16:09:56.529Z,21.09
2019-05-26T16:12:24.932Z,21.00
2019-05-26T16:14:53.422Z,20.87
2019-05-26T16:17:21.903Z,20.98
2019-05-26T16:19:50.313Z,20.98
2019-05-26T16:22:18.712Z,20.90
2019-05-26T16:24:47.172Z,21.07
2019-05-26T16:27:19.547Z,20.86
2019-05-26T16:29:46.700Z,20.73
2019-05-26T16:32:18.652Z,20.70
2019-05-26T16:34:45.415Z,20.68
2019-05-26T16:37:13.798Z,20.76
2019-05-26T16:39:42.342Z,20.61
2019-05-26T16:42:10.767Z,20.46
2019-05-26T16:44:39.225Z,20.54
2019-05-26T16:47:07.641Z,20.44
2019-05-26T16:49:36.156Z,20.10
2019-05-26T16:52:04.949Z,20.10
2019-05-26T16:54:33.446Z,20.19
2019-05-26T16:57:01.923Z,20.20
2019-05-26T16:59:30.354Z,20.19
2019-05-26T17:01:58.799Z,20.24
2019-05-26T17:04:27.235Z,20.17
2019-05-26T17:06:55.688Z,20.15
2019-05-26T17:09:24.119Z,20.09
2019-05-26T17:11:52.575Z,20.02
2019-05-26T17:14:21.068Z,19.86
2019-05-26T17:16:49.487Z,19.74
2019-05-26T17:19:17.903Z,19.77
2019-05-26T17:21:47.454Z,19.80
2019-05-26T17:24:15.920Z,19.82
2019-05-26T17:26:46.457Z,19.80
2019-05-26T17:29:14.859Z,19.82
2019-05-26T17:31:43.315Z,19.75
2019-05-26T17:34:11.914Z,19.75
2019-05-26T17:36:40.349Z,19.77
2019-05-26T17:39:09.482Z,19.72
2019-05-26T17:41:37.979Z,19.81
2019-05-26T17:44:06.640Z,19.83
2019-05-26T17:46:35.154Z,19.78
2019-05-26T17:49:03.566Z,19.83
2019-05-26T17:51:32.278Z,19.77
2019-05-26T17:54:00.771Z,19.61
2019-05-26T17:56:29.359Z,19.62
2019-05-26T17:58:57.764Z,19.65
2019-05-26T18:01:26.200Z,19.67
2019-05-26T18:03:54.650Z,19.57
2019-05-26T18:06:23.081Z,19.42
2019-05-26T18:08:51.523Z,19.51
2019-05-26T18:11:20.143Z,19.52
2019-05-26T18:13:48.619Z,19.53
2019-05-26T18:16:18.157Z,19.47
2019-05-26T18:18:46.712Z,19.47
2019-05-26T18:21:15.208Z,19.51
2019-05-26T18:23:43.683Z,19.56
2019-05-26T18:26:12.083Z,19.47
2019-05-26T18:28:40.482Z,19.45
2019-05-26T18:31:08.900Z,19.46
2019-05-26T18:33:37.332Z,19.47
2019-05-26T18:36:05.832Z,19.51
2019-05-26T18:38:34.254Z,19.52
2019-05-26T18:41:02.664Z,19.36
2019-05-26T18:43:31.068Z,19.36
2019-05-26T18:45:59.496Z,19.26
2019-05-26T18:48:27.903Z,19.32
2019-05-26T18:50:56.336Z,19.41
2019-05-26T18:53:24.812Z,19.31
2019-05-26T18:55:54.105Z,19.29
2019-05-26T18:58:22.669Z,19.39
2019-05-26T19:00:51.159Z,19.25
2019-05-26T19:03:19.690Z,19.19
2019-05-26T19:05:48.630Z,19.29
2019-05-26T19:08:17.323Z,19.15
2019-05-26T19:10:45.910Z,19.18
2019-05-26T19:13:14.419Z,19.22
2019-05-26T19:15:42.842Z,19.11
2019-05-26T19:18:20.016Z,19.21
2019-05-26T19:20:41.664Z,19.17
2019-05-26T19:23:10.201Z,19.02
2019-05-26T19:25:38.598Z,18.85
2019-05-26T19:28:08.212Z,18.92
2019-05-26T19:30:37.035Z,18.93
2019-05-26T19:33:06.113Z,18.91
2019-05-26T19:35:34.574Z,18.76
2019-05-26T19:38:03.077Z,18.76
2019-05-26T19:40:31.953Z,18.74
2019-05-26T19:43:00.952Z,18.67
2019-05-26T19:45:30.202Z,18.61
2019-05-26T19:47:58.691Z,18.56
2019-05-26T19:50:27.120Z,18.57
2019-05-26T19:52:55.641Z,18.49
2019-05-26T19:55:24.075Z,18.45
2019-05-26T19:57:52.581Z,18.40
2019-05-26T20:00:21.607Z,18.46
2019-05-26T20:02:50.007Z,18.46
2019-05-26T20:05:19.312Z,18.48
2019-05-26T20:07:47.827Z,18.47
2019-05-26T20:10:17.525Z,18.50
2019-05-26T20:12:46.324Z,18.51
2019-05-26T20:15:15.213Z,18.49
2019-05-26T20:17:44.153Z,18.47
2019-05-26T20:20:14.600Z,18.52
2019-05-26T20:22:43.058Z,18.52
2019-05-26T20:25:12.258Z,18.52
2019-05-26T20:27:40.674Z,18.60
2019-05-26T20:30:09.824Z,18.50
2019-05-26T20:32:38.246Z,18.62
2019-05-26T20:35:08.475Z,18.69
2019-05-26T20:37:37.029Z,18.75
2019-05-26T20:40:08.253Z,18.72
2019-05-26T20:42:36.682Z,18.70
2019-05-26T20:45:07.303Z,18.63
2019-05-26T20:47:36.054Z,18.47
2019-05-26T20:50:08.494Z,18.39
2019-05-26T20:52:36.917Z,18.22
2019-05-26T20:55:09.855Z,18.30
2019-05-26T20:57:38.449Z,18.07
2019-05-26T21:00:13.262Z,18.17
2019-05-26T21:02:42.392Z,17.95
2019-05-26T21:05:11.139Z,18.02
2019-05-26T21:07:39.662Z,17.90
2019-05-26T21:10:08.516Z,17.96
2019-05-26T21:12:36.917Z,17.87
2019-05-26T21:15:06.865Z,17.80
2019-05-26T21:17:35.270Z,17.79
2019-05-26T21:20:05.822Z,17.69
2019-05-26T21:22:34.302Z,17.65
2019-05-26T21:25:02.715Z,17.64
2019-05-26T21:27:31.102Z,17.69
2019-05-26T21:29:59.579Z,17.64
2019-05-26T21:32:31.289Z,17.69
2019-05-26T21:34:58.130Z,17.70
2019-05-26T21:37:26.564Z,17.72
2019-05-26T21:39:54.970Z,17.67
2019-05-26T21:42:23.431Z,17.71
2019-05-26T21:44:51.891Z,17.76
2019-05-26T21:47:20.316Z,17.75
2019-05-26T21:49:48.738Z,17.72
2019-05-26T21:52:17.153Z,17.76
2019-05-26T21:54:45.627Z,17.74
2019-05-26T21:57:14.100Z,17.67
2019-05-26T21:59:42.537Z,17.65
2019-05-26T22:02:11.880Z,17.69
2019-05-26T22:04:40.300Z,17.72
2019-05-26T22:07:08.718Z,17.74
2019-05-26T22:09:37.126Z,17.45
2019-05-26T22:12:05.684Z,17.34
2019-05-26T22:14:34.144Z,17.35
2019-05-26T22:17:02.588Z,17.32
2019-05-26T22:19:31.103Z,17.26
2019-05-26T22:22:00.477Z,17.26
2019-05-26T22:24:28.954Z,17.25
2019-05-26T22:26:57.358Z,17.20
2019-05-26T22:29:25.786Z,17.00
2019-05-26T22:31:54.211Z,16.99
2019-05-26T22:34:22.672Z,17.08
2019-05-26T22:36:51.163Z,16.96
2019-05-26T22:39:20.795Z,16.85
2019-05-26T22:41:49.211Z,16.67
2019-05-26T22:44:17.605Z,16.61
2019-05-26T22:46:46.040Z,16.56
2019-05-26T22:49:14.506Z,16.43
2019-05-26T22:51:42.901Z,16.35
2019-05-26T22:54:11.352Z,16.31
2019-05-26T22:56:39.864Z,16.21
2019-05-26T22:59:08.291Z,16.07
2019-05-26T23:01:36.698Z,16.02
2019-05-26T23:04:05.165Z,16.00
2019-05-26T23:06:33.596Z,15.96
2019-05-26T23:09:02.032Z,16.01
2019-05-26T23:11:30.542Z,15.88
2019-05-26T23:13:59.003Z,15.77
2019-05-26T23:16:27.494Z,15.81
2019-05-26T23:18:55.910Z,15.78
2019-05-26T23:21:24.322Z,15.78
2019-05-26T23:23:52.729Z,15.69
2019-05-26T23:26:21.140Z,15.51
2019-05-26T23:28:49.616Z,15.50
2019-05-26T23:31:18.067Z,15.44
2019-05-26T23:33:46.480Z,15.41
2019-05-26T23:36:14.889Z,15.40
2019-05-26T23:38:43.341Z,15.38
2019-05-26T23:41:11.832Z,15.46
2019-05-26T23:43:41.153Z,15.40
2019-05-26T23:46:09.586Z,15.41
2019-05-26T23:48:38.070Z,15.36
2019-05-26T23:51:06.557Z,15.42
2019-05-26T23:53:35.019Z,15.42
2019-05-26T23:56:03.446Z,15.45
2019-05-26T23:58:31.885Z,15.39
